sensor_id;sensor_type;location;lat;lon;timestamp;P1;durP1;ratioP1;P2;durP2;ratioP2
49193;SDS011;35029;50.804;12.866;2023-05-10T00:01:37;3.38;;;3.08;;
49193;SDS011;35029;50.804;12.866;2023-05-10T00:04:03;6.00;;;3.65;;
49193;SDS011;35029;50.804;12.866;2023-05-10T00:06:29;4.55;;;3.17;;
49193;SDS011;35029;50.804;12.866;2023-05-10T00:08:55;4.15;;;3.15;;
49193;SDS011;35029;50.804;12.866;2023-05-10T00:11:20;3.55;;;3.20;;
49193;SDS011;35029;50.804;12.866;2023-05-10T00:13:46;4.28;;;3.05;;
49193;SDS011;35029;50.804;12.866;2023-05-10T00:16:12;5.00;;;3.42;;
49193;SDS011;35029;50.804;12.866;2023-05-10T00:18:39;3.83;;;3.10;;
49193;SDS011;35029;50.804;12.866;2023-05-10T00:21:05;3.92;;;3.15;;
49193;SDS011;35029;50.804;12.866;2023-05-10T00:23:31;3.95;;;3.50;;
49193;SDS011;35029;50.804;12.866;2023-05-10T00:25:57;4.07;;;3.33;;
49193;SDS011;35029;50.804;12.866;2023-05-10T00:28:22;4.13;;;3.25;;
49193;SDS011;35029;50.804;12.866;2023-05-10T00:30:48;3.50;;;2.80;;
49193;SDS011;35029;50.804;12.866;2023-05-10T00:33:13;5.70;;;3.03;;
49193;SDS011;35029;50.804;12.866;2023-05-10T00:35:39;5.32;;;3.22;;
49193;SDS011;35029;50.804;12.866;2023-05-10T00:38:05;4.22;;;3.00;;
49193;SDS011;35029;50.804;12.866;2023-05-10T00:40:31;5.22;;;3.25;;
49193;SDS011;35029;50.804;12.866;2023-05-10T00:43:01;3.72;;;3.17;;
49193;SDS011;35029;50.804;12.866;2023-05-10T00:45:27;5.63;;;3.22;;
49193;SDS011;35029;50.804;12.866;2023-05-10T00:47:52;5.07;;;3.47;;
49193;SDS011;35029;50.804;12.866;2023-05-10T00:50:21;5.82;;;3.50;;
49193;SDS011;35029;50.804;12.866;2023-05-10T00:52:49;3.20;;;2.90;;
49193;SDS011;35029;50.804;12.866;2023-05-10T00:55:15;3.88;;;3.40;;
49193;SDS011;35029;50.804;12.866;2023-05-10T00:57:41;3.70;;;3.40;;
49193;SDS011;35029;50.804;12.866;2023-05-10T01:00:07;4.30;;;3.70;;
49193;SDS011;35029;50.804;12.866;2023-05-10T01:02:34;4.35;;;3.22;;
49193;SDS011;35029;50.804;12.866;2023-05-10T01:05:01;3.40;;;3.03;;
49193;SDS011;35029;50.804;12.866;2023-05-10T01:07:28;4.63;;;3.45;;
49193;SDS011;35029;50.804;12.866;2023-05-10T01:09:54;4.18;;;3.30;;
49193;SDS011;35029;50.804;12.866;2023-05-10T01:12:21;4.82;;;3.90;;
49193;SDS011;35029;50.804;12.866;2023-05-10T01:14:47;4.05;;;3.65;;
49193;SDS011;35029;50.804;12.866;2023-05-10T01:17:13;12.05;;;3.22;;
49193;SDS011;35029;50.804;12.866;2023-05-10T01:19:40;3.75;;;3.40;;
49193;SDS011;35029;50.804;12.866;2023-05-10T01:30:44;7.00;;;3.65;;
49193;SDS011;35029;50.804;12.866;2023-05-10T01:33:11;6.68;;;3.83;;
49193;SDS011;35029;50.804;12.866;2023-05-10T01:43:57;5.93;;;3.60;;
49193;SDS011;35029;50.804;12.866;2023-05-10T01:46:37;11.73;;;4.10;;
49193;SDS011;35029;50.804;12.866;2023-05-10T01:49:26;4.35;;;3.25;;
49193;SDS011;35029;50.804;12.866;2023-05-10T01:51:59;7.90;;;4.05;;
49193;SDS011;35029;50.804;12.866;2023-05-10T01:54:38;3.72;;;3.42;;
49193;SDS011;35029;50.804;12.866;2023-05-10T01:57:09;5.97;;;3.60;;
49193;SDS011;35029;50.804;12.866;2023-05-10T01:59:40;5.57;;;3.88;;
49193;SDS011;35029;50.804;12.866;2023-05-10T02:02:08;7.70;;;3.55;;
49193;SDS011;35029;50.804;12.866;2023-05-10T02:04:37;4.22;;;3.40;;
49193;SDS011;35029;50.804;12.866;2023-05-10T02:07:05;6.30;;;4.00;;
49193;SDS011;35029;50.804;12.866;2023-05-10T02:09:32;3.72;;;3.30;;
49193;SDS011;35029;50.804;12.866;2023-05-10T02:12:00;4.57;;;3.30;;
49193;SDS011;35029;50.804;12.866;2023-05-10T02:14:30;5.88;;;3.60;;
49193;SDS011;35029;50.804;12.866;2023-05-10T02:17:10;3.67;;;3.33;;
49193;SDS011;35029;50.804;12.866;2023-05-10T02:22:10;4.28;;;3.25;;
49193;SDS011;35029;50.804;12.866;2023-05-10T02:24:36;12.52;;;4.22;;
49193;SDS011;35029;50.804;12.866;2023-05-10T02:27:04;4.13;;;3.55;;
49193;SDS011;35029;50.804;12.866;2023-05-10T02:32:01;5.28;;;3.53;;
49193;SDS011;35029;50.804;12.866;2023-05-10T02:34:29;7.75;;;3.40;;
49193;SDS011;35029;50.804;12.866;2023-05-10T02:36:55;4.97;;;3.60;;
49193;SDS011;35029;50.804;12.866;2023-05-10T02:39:22;4.43;;;3.60;;
49193;SDS011;35029;50.804;12.866;2023-05-10T02:41:50;9.30;;;3.40;;
49193;SDS011;35029;50.804;12.866;2023-05-10T02:44:18;3.55;;;3.25;;
49193;SDS011;35029;50.804;12.866;2023-05-10T02:46:45;4.47;;;3.65;;
49193;SDS011;35029;50.804;12.866;2023-05-10T02:49:12;5.38;;;3.20;;
49193;SDS011;35029;50.804;12.866;2023-05-10T02:51:40;4.68;;;3.83;;
49193;SDS011;35029;50.804;12.866;2023-05-10T02:54:18;6.47;;;3.88;;
49193;SDS011;35029;50.804;12.866;2023-05-10T02:56:50;6.10;;;3.20;;
49193;SDS011;35029;50.804;12.866;2023-05-10T02:59:19;3.47;;;3.17;;
49193;SDS011;35029;50.804;12.866;2023-05-10T03:01:44;3.70;;;3.40;;
49193;SDS011;35029;50.804;12.866;2023-05-10T03:04:11;4.22;;;3.78;;
49193;SDS011;35029;50.804;12.866;2023-05-10T03:06:37;3.67;;;3.22;;
49193;SDS011;35029;50.804;12.866;2023-05-10T03:09:03;4.03;;;3.63;;
49193;SDS011;35029;50.804;12.866;2023-05-10T03:16:47;3.60;;;3.30;;
49193;SDS011;35029;50.804;12.866;2023-05-10T03:22:19;7.68;;;4.07;;
49193;SDS011;35029;50.804;12.866;2023-05-10T03:24:49;4.38;;;3.47;;
49193;SDS011;35029;50.804;12.866;2023-05-10T03:27:19;8.18;;;3.67;;
49193;SDS011;35029;50.804;12.866;2023-05-10T03:29:46;5.75;;;4.40;;
49193;SDS011;35029;50.804;12.866;2023-05-10T03:32:12;5.47;;;3.92;;
49193;SDS011;35029;50.804;12.866;2023-05-10T03:34:41;4.65;;;3.90;;
49193;SDS011;35029;50.804;12.866;2023-05-10T03:37:08;5.20;;;3.53;;
49193;SDS011;35029;50.804;12.866;2023-05-10T03:39:34;5.35;;;4.03;;
49193;SDS011;35029;50.804;12.866;2023-05-10T03:42:01;4.53;;;3.67;;
49193;SDS011;35029;50.804;12.866;2023-05-10T03:44:26;5.65;;;4.15;;
49193;SDS011;35029;50.804;12.866;2023-05-10T03:46:52;5.75;;;3.80;;
49193;SDS011;35029;50.804;12.866;2023-05-10T03:49:17;4.60;;;3.50;;
49193;SDS011;35029;50.804;12.866;2023-05-10T03:51:43;5.90;;;3.60;;
49193;SDS011;35029;50.804;12.866;2023-05-10T03:54:09;4.40;;;3.70;;
49193;SDS011;35029;50.804;12.866;2023-05-10T03:56:35;4.03;;;3.58;;
49193;SDS011;35029;50.804;12.866;2023-05-10T03:59:00;6.43;;;3.58;;
49193;SDS011;35029;50.804;12.866;2023-05-10T04:01:26;6.20;;;4.00;;
49193;SDS011;35029;50.804;12.866;2023-05-10T04:03:52;6.22;;;3.78;;
49193;SDS011;35029;50.804;12.866;2023-05-10T04:06:17;5.53;;;4.13;;
49193;SDS011;35029;50.804;12.866;2023-05-10T04:08:43;5.47;;;3.47;;
49193;SDS011;35029;50.804;12.866;2023-05-10T04:11:10;7.45;;;3.42;;
49193;SDS011;35029;50.804;12.866;2023-05-10T04:13:39;5.55;;;3.50;;
49193;SDS011;35029;50.804;12.866;2023-05-10T04:16:04;4.47;;;3.80;;
49193;SDS011;35029;50.804;12.866;2023-05-10T04:18:30;4.72;;;3.75;;
49193;SDS011;35029;50.804;12.866;2023-05-10T04:20:57;5.03;;;3.25;;
49193;SDS011;35029;50.804;12.866;2023-05-10T04:23:24;7.80;;;3.90;;
49193;SDS011;35029;50.804;12.866;2023-05-10T04:25:50;3.83;;;3.40;;
49193;SDS011;35029;50.804;12.866;2023-05-10T04:28:15;7.22;;;3.67;;
49193;SDS011;35029;50.804;12.866;2023-05-10T04:30:41;8.60;;;3.90;;
49193;SDS011;35029;50.804;12.866;2023-05-10T04:33:07;6.22;;;3.75;;
49193;SDS011;35029;50.804;12.866;2023-05-10T04:35:32;6.70;;;3.83;;
49193;SDS011;35029;50.804;12.866;2023-05-10T04:37:59;6.93;;;3.90;;
49193;SDS011;35029;50.804;12.866;2023-05-10T04:40:24;7.00;;;3.88;;
49193;SDS011;35029;50.804;12.866;2023-05-10T04:42:51;4.30;;;3.33;;
49193;SDS011;35029;50.804;12.866;2023-05-10T04:45:16;5.40;;;4.07;;
49193;SDS011;35029;50.804;12.866;2023-05-10T04:47:42;6.20;;;3.05;;
49193;SDS011;35029;50.804;12.866;2023-05-10T04:50:07;7.03;;;4.05;;
49193;SDS011;35029;50.804;12.866;2023-05-10T04:52:33;5.85;;;4.18;;
49193;SDS011;35029;50.804;12.866;2023-05-10T04:54:59;7.32;;;3.97;;
49193;SDS011;35029;50.804;12.866;2023-05-10T04:57:25;6.18;;;3.42;;
49193;SDS011;35029;50.804;12.866;2023-05-10T04:59:50;5.90;;;3.75;;
49193;SDS011;35029;50.804;12.866;2023-05-10T05:02:16;5.65;;;3.38;;
49193;SDS011;35029;50.804;12.866;2023-05-10T05:04:41;4.60;;;3.63;;
49193;SDS011;35029;50.804;12.866;2023-05-10T05:07:07;6.22;;;3.35;;
49193;SDS011;35029;50.804;12.866;2023-05-10T05:09:32;8.85;;;4.13;;
49193;SDS011;35029;50.804;12.866;2023-05-10T05:11:58;4.30;;;3.90;;
49193;SDS011;35029;50.804;12.866;2023-05-10T05:14:23;4.60;;;3.33;;
49193;SDS011;35029;50.804;12.866;2023-05-10T05:16:52;5.78;;;3.45;;
49193;SDS011;35029;50.804;12.866;2023-05-10T05:19:18;8.35;;;3.28;;
49193;SDS011;35029;50.804;12.866;2023-05-10T05:21:43;3.70;;;3.05;;
49193;SDS011;35029;50.804;12.866;2023-05-10T05:24:09;3.80;;;3.40;;
49193;SDS011;35029;50.804;12.866;2023-05-10T05:26:36;4.25;;;3.33;;
49193;SDS011;35029;50.804;12.866;2023-05-10T05:29:02;3.85;;;3.47;;
49193;SDS011;35029;50.804;12.866;2023-05-10T05:31:28;3.95;;;3.47;;
49193;SDS011;35029;50.804;12.866;2023-05-10T05:33:54;5.70;;;3.65;;
49193;SDS011;35029;50.804;12.866;2023-05-10T05:36:20;5.47;;;3.20;;
49193;SDS011;35029;50.804;12.866;2023-05-10T05:38:46;6.88;;;3.42;;
49193;SDS011;35029;50.804;12.866;2023-05-10T05:41:12;4.85;;;3.25;;
49193;SDS011;35029;50.804;12.866;2023-05-10T05:43:38;7.10;;;3.08;;
49193;SDS011;35029;50.804;12.866;2023-05-10T05:46:04;6.95;;;3.50;;
49193;SDS011;35029;50.804;12.866;2023-05-10T05:48:30;4.55;;;3.00;;
49193;SDS011;35029;50.804;12.866;2023-05-10T05:50:56;3.30;;;3.00;;
49193;SDS011;35029;50.804;12.866;2023-05-10T05:53:22;3.90;;;3.50;;
49193;SDS011;35029;50.804;12.866;2023-05-10T05:55:54;4.25;;;3.20;;
49193;SDS011;35029;50.804;12.866;2023-05-10T05:58:21;5.93;;;3.47;;
49193;SDS011;35029;50.804;12.866;2023-05-10T06:00:47;11.15;;;3.90;;
49193;SDS011;35029;50.804;12.866;2023-05-10T06:03:13;4.47;;;2.92;;
49193;SDS011;35029;50.804;12.866;2023-05-10T06:05:39;8.25;;;3.70;;
49193;SDS011;35029;50.804;12.866;2023-05-10T06:08:04;7.63;;;3.33;;
49193;SDS011;35029;50.804;12.866;2023-05-10T06:10:30;4.75;;;3.15;;
49193;SDS011;35029;50.804;12.866;2023-05-10T06:12:56;5.28;;;3.53;;
49193;SDS011;35029;50.804;12.866;2023-05-10T06:15:21;8.20;;;3.65;;
49193;SDS011;35029;50.804;12.866;2023-05-10T06:17:47;8.60;;;3.47;;
49193;SDS011;35029;50.804;12.866;2023-05-10T06:20:14;6.10;;;3.60;;
49193;SDS011;35029;50.804;12.866;2023-05-10T06:22:41;3.85;;;3.38;;
49193;SDS011;35029;50.804;12.866;2023-05-10T06:25:07;4.13;;;3.05;;
49193;SDS011;35029;50.804;12.866;2023-05-10T06:27:33;5.28;;;3.65;;
49193;SDS011;35029;50.804;12.866;2023-05-10T06:29:58;3.22;;;2.72;;
49193;SDS011;35029;50.804;12.866;2023-05-10T06:32:24;4.32;;;3.20;;
49193;SDS011;35029;50.804;12.866;2023-05-10T06:34:49;4.85;;;3.63;;
49193;SDS011;35029;50.804;12.866;2023-05-10T06:37:15;4.00;;;3.00;;
49193;SDS011;35029;50.804;12.866;2023-05-10T06:39:40;4.43;;;3.45;;
49193;SDS011;35029;50.804;12.866;2023-05-10T06:42:06;4.00;;;3.50;;
49193;SDS011;35029;50.804;12.866;2023-05-10T06:44:32;4.25;;;2.97;;
49193;SDS011;35029;50.804;12.866;2023-05-10T06:46:57;4.53;;;3.40;;
49193;SDS011;35029;50.804;12.866;2023-05-10T06:49:23;3.20;;;2.90;;
49193;SDS011;35029;50.804;12.866;2023-05-10T06:51:48;3.70;;;3.05;;
49193;SDS011;35029;50.804;12.866;2023-05-10T06:54:14;4.20;;;3.25;;
49193;SDS011;35029;50.804;12.866;2023-05-10T06:56:40;9.15;;;3.85;;
49193;SDS011;35029;50.804;12.866;2023-05-10T06:59:05;7.28;;;3.88;;
49193;SDS011;35029;50.804;12.866;2023-05-10T07:01:31;4.47;;;3.00;;
49193;SDS011;35029;50.804;12.866;2023-05-10T07:03:57;6.57;;;3.78;;
49193;SDS011;35029;50.804;12.866;2023-05-10T07:06:22;6.13;;;3.17;;
49193;SDS011;35029;50.804;12.866;2023-05-10T07:08:48;5.18;;;3.13;;
49193;SDS011;35029;50.804;12.866;2023-05-10T07:11:13;4.85;;;3.55;;
49193;SDS011;35029;50.804;12.866;2023-05-10T07:13:39;4.88;;;3.78;;
49193;SDS011;35029;50.804;12.866;2023-05-10T07:16:08;4.53;;;3.10;;
49193;SDS011;35029;50.804;12.866;2023-05-10T07:18:35;5.20;;;3.58;;
49193;SDS011;35029;50.804;12.866;2023-05-10T07:21:00;3.30;;;3.00;;
49193;SDS011;35029;50.804;12.866;2023-05-10T07:23:26;3.85;;;3.17;;
49193;SDS011;35029;50.804;12.866;2023-05-10T07:25:52;4.13;;;3.70;;
49193;SDS011;35029;50.804;12.866;2023-05-10T07:28:18;4.07;;;3.67;;
49193;SDS011;35029;50.804;12.866;2023-05-10T07:30:44;5.32;;;3.58;;
49193;SDS011;35029;50.804;12.866;2023-05-10T07:33:10;4.00;;;3.60;;
49193;SDS011;35029;50.804;12.866;2023-05-10T07:35:38;3.65;;;3.13;;
49193;SDS011;35029;50.804;12.866;2023-05-10T07:38:03;3.95;;;3.08;;
49193;SDS011;35029;50.804;12.866;2023-05-10T07:40:29;6.00;;;3.45;;
49193;SDS011;35029;50.804;12.866;2023-05-10T07:42:55;3.83;;;3.40;;
49193;SDS011;35029;50.804;12.866;2023-05-10T07:45:21;3.60;;;2.75;;
49193;SDS011;35029;50.804;12.866;2023-05-10T07:47:47;3.58;;;2.80;;
49193;SDS011;35029;50.804;12.866;2023-05-10T07:50:12;4.40;;;3.15;;
49193;SDS011;35029;50.804;12.866;2023-05-10T07:52:38;3.85;;;3.03;;
49193;SDS011;35029;50.804;12.866;2023-05-10T07:55:03;3.88;;;3.45;;
49193;SDS011;35029;50.804;12.866;2023-05-10T07:57:29;4.05;;;3.35;;
49193;SDS011;35029;50.804;12.866;2023-05-10T07:59:55;10.30;;;4.40;;
49193;SDS011;35029;50.804;12.866;2023-05-10T08:02:21;5.07;;;3.97;;
49193;SDS011;35029;50.804;12.866;2023-05-10T08:04:46;3.88;;;3.40;;
49193;SDS011;35029;50.804;12.866;2023-05-10T08:07:12;3.63;;;3.00;;
49193;SDS011;35029;50.804;12.866;2023-05-10T08:09:37;3.90;;;3.55;;
49193;SDS011;35029;50.804;12.866;2023-05-10T08:12:03;5.90;;;3.28;;
49193;SDS011;35029;50.804;12.866;2023-05-10T08:14:29;5.07;;;3.45;;
49193;SDS011;35029;50.804;12.866;2023-05-10T08:16:55;3.70;;;3.05;;
49193;SDS011;35029;50.804;12.866;2023-05-10T08:19:21;4.13;;;3.22;;
49193;SDS011;35029;50.804;12.866;2023-05-10T08:21:47;5.38;;;2.78;;
49193;SDS011;35029;50.804;12.866;2023-05-10T08:24:13;4.07;;;3.67;;
49193;SDS011;35029;50.804;12.866;2023-05-10T08:26:39;6.97;;;3.53;;
49193;SDS011;35029;50.804;12.866;2023-05-10T08:29:05;5.68;;;3.30;;
49193;SDS011;35029;50.804;12.866;2023-05-10T08:31:31;5.70;;;3.83;;
49193;SDS011;35029;50.804;12.866;2023-05-10T08:33:57;4.93;;;3.15;;
49193;SDS011;35029;50.804;12.866;2023-05-10T08:36:22;4.13;;;3.35;;
49193;SDS011;35029;50.804;12.866;2023-05-10T08:38:52;4.97;;;3.90;;
49193;SDS011;35029;50.804;12.866;2023-05-10T08:41:22;4.40;;;3.40;;
49193;SDS011;35029;50.804;12.866;2023-05-10T08:43:51;4.97;;;3.60;;
49193;SDS011;35029;50.804;12.866;2023-05-10T08:46:18;5.10;;;3.80;;
49193;SDS011;35029;50.804;12.866;2023-05-10T08:48:46;4.25;;;3.38;;
49193;SDS011;35029;50.804;12.866;2023-05-10T08:51:13;5.70;;;3.13;;
49193;SDS011;35029;50.804;12.866;2023-05-10T08:53:40;7.13;;;3.83;;
49193;SDS011;35029;50.804;12.866;2023-05-10T08:56:06;5.13;;;3.50;;
49193;SDS011;35029;50.804;12.866;2023-05-10T08:58:31;4.78;;;3.78;;
49193;SDS011;35029;50.804;12.866;2023-05-10T09:00:57;4.63;;;3.70;;
49193;SDS011;35029;50.804;12.866;2023-05-10T09:03:24;4.55;;;3.97;;
49193;SDS011;35029;50.804;12.866;2023-05-10T09:05:49;6.15;;;3.80;;
49193;SDS011;35029;50.804;12.866;2023-05-10T09:08:15;4.28;;;3.85;;
49193;SDS011;35029;50.804;12.866;2023-05-10T09:10:43;4.97;;;3.72;;
49193;SDS011;35029;50.804;12.866;2023-05-10T09:13:09;5.18;;;3.92;;
49193;SDS011;35029;50.804;12.866;2023-05-10T09:15:36;5.80;;;3.90;;
49193;SDS011;35029;50.804;12.866;2023-05-10T09:18:02;7.05;;;4.03;;
49193;SDS011;35029;50.804;12.866;2023-05-10T09:20:28;6.35;;;4.13;;
49193;SDS011;35029;50.804;12.866;2023-05-10T09:22:54;4.00;;;3.60;;
49193;SDS011;35029;50.804;12.866;2023-05-10T09:25:20;4.85;;;3.95;;
49193;SDS011;35029;50.804;12.866;2023-05-10T09:27:47;6.28;;;4.03;;
49193;SDS011;35029;50.804;12.866;2023-05-10T09:30:25;6.50;;;4.38;;
49193;SDS011;35029;50.804;12.866;2023-05-10T09:32:52;9.77;;;5.38;;
49193;SDS011;35029;50.804;12.866;2023-05-10T09:35:20;10.70;;;4.97;;
49193;SDS011;35029;50.804;12.866;2023-05-10T09:37:49;5.47;;;4.75;;
49193;SDS011;35029;50.804;12.866;2023-05-10T09:40:16;4.15;;;3.75;;
49193;SDS011;35029;50.804;12.866;2023-05-10T09:42:50;4.68;;;4.28;;
49193;SDS011;35029;50.804;12.866;2023-05-10T09:45:22;6.53;;;4.30;;
49193;SDS011;35029;50.804;12.866;2023-05-10T09:47:49;9.45;;;5.20;;
49193;SDS011;35029;50.804;12.866;2023-05-10T09:50:14;6.63;;;4.72;;
49193;SDS011;35029;50.804;12.866;2023-05-10T09:52:50;5.65;;;4.93;;
49193;SDS011;35029;50.804;12.866;2023-05-10T09:55:24;5.22;;;4.78;;
49193;SDS011;35029;50.804;12.866;2023-05-10T09:58:07;5.95;;;5.00;;
49193;SDS011;35029;50.804;12.866;2023-05-10T10:00:38;8.20;;;5.47;;
49193;SDS011;35029;50.804;12.866;2023-05-10T10:03:06;6.20;;;4.90;;
49193;SDS011;35029;50.804;12.866;2023-05-10T10:05:39;5.40;;;4.90;;
49193;SDS011;35029;50.804;12.866;2023-05-10T10:08:06;5.22;;;4.72;;
49193;SDS011;35029;50.804;12.866;2023-05-10T10:10:32;8.60;;;5.20;;
49193;SDS011;35029;50.804;12.866;2023-05-10T10:12:58;10.82;;;5.22;;
49193;SDS011;35029;50.804;12.866;2023-05-10T10:15:25;8.10;;;5.38;;
49193;SDS011;35029;50.804;12.866;2023-05-10T10:17:51;9.10;;;5.53;;
49193;SDS011;35029;50.804;12.866;2023-05-10T10:20:18;8.57;;;4.90;;
49193;SDS011;35029;50.804;12.866;2023-05-10T10:22:46;7.63;;;5.05;;
49193;SDS011;35029;50.804;12.866;2023-05-10T10:25:12;5.85;;;4.97;;
49193;SDS011;35029;50.804;12.866;2023-05-10T10:35:41;5.47;;;4.72;;
49193;SDS011;35029;50.804;12.866;2023-05-10T10:38:11;9.90;;;5.53;;
49193;SDS011;35029;50.804;12.866;2023-05-10T10:40:38;6.55;;;4.95;;
49193;SDS011;35029;50.804;12.866;2023-05-10T10:43:46;7.93;;;4.50;;
49193;SDS011;35029;50.804;12.866;2023-05-10T10:46:13;5.22;;;4.53;;
49193;SDS011;35029;50.804;12.866;2023-05-10T10:48:49;5.57;;;4.50;;
49193;SDS011;35029;50.804;12.866;2023-05-10T10:51:16;6.47;;;5.05;;
49193;SDS011;35029;50.804;12.866;2023-05-10T10:53:42;8.25;;;5.32;;
49193;SDS011;35029;50.804;12.866;2023-05-10T10:56:08;5.43;;;4.30;;
49193;SDS011;35029;50.804;12.866;2023-05-10T10:58:37;5.70;;;4.68;;
49193;SDS011;35029;50.804;12.866;2023-05-10T11:01:18;5.00;;;4.50;;
49193;SDS011;35029;50.804;12.866;2023-05-10T11:06:31;9.75;;;5.35;;
49193;SDS011;35029;50.804;12.866;2023-05-10T11:08:59;5.57;;;4.43;;
49193;SDS011;35029;50.804;12.866;2023-05-10T11:11:35;5.75;;;5.13;;
49193;SDS011;35029;50.804;12.866;2023-05-10T11:14:06;7.25;;;4.93;;
49193;SDS011;35029;50.804;12.866;2023-05-10T11:16:41;6.93;;;4.65;;
49193;SDS011;35029;50.804;12.866;2023-05-10T11:19:12;5.68;;;4.65;;
49193;SDS011;35029;50.804;12.866;2023-05-10T11:21:51;5.00;;;4.25;;
49193;SDS011;35029;50.804;12.866;2023-05-10T11:24:38;5.22;;;4.18;;
49193;SDS011;35029;50.804;12.866;2023-05-10T11:27:04;5.82;;;4.53;;
49193;SDS011;35029;50.804;12.866;2023-05-10T11:29:31;7.38;;;5.00;;
49193;SDS011;35029;50.804;12.866;2023-05-10T11:31:57;7.22;;;5.05;;
49193;SDS011;35029;50.804;12.866;2023-05-10T11:34:30;5.57;;;4.15;;
49193;SDS011;35029;50.804;12.866;2023-05-10T11:36:59;4.82;;;4.43;;
49193;SDS011;35029;50.804;12.866;2023-05-10T11:39:28;6.18;;;5.55;;
49193;SDS011;35029;50.804;12.866;2023-05-10T11:41:55;5.25;;;4.35;;
49193;SDS011;35029;50.804;12.866;2023-05-10T11:44:22;6.80;;;5.10;;
49193;SDS011;35029;50.804;12.866;2023-05-10T11:46:48;5.70;;;5.10;;
49193;SDS011;35029;50.804;12.866;2023-05-10T11:49:14;6.25;;;4.72;;
49193;SDS011;35029;50.804;12.866;2023-05-10T11:51:39;8.40;;;5.32;;
49193;SDS011;35029;50.804;12.866;2023-05-10T11:54:08;6.65;;;5.13;;
49193;SDS011;35029;50.804;12.866;2023-05-10T11:56:34;5.70;;;5.00;;
49193;SDS011;35029;50.804;12.866;2023-05-10T11:59:01;6.25;;;4.82;;
49193;SDS011;35029;50.804;12.866;2023-05-10T12:01:27;9.10;;;6.18;;
49193;SDS011;35029;50.804;12.866;2023-05-10T12:03:54;6.63;;;5.28;;
49193;SDS011;35029;50.804;12.866;2023-05-10T12:06:25;7.95;;;5.68;;
49193;SDS011;35029;50.804;12.866;2023-05-10T12:08:56;6.93;;;5.70;;
49193;SDS011;35029;50.804;12.866;2023-05-10T12:11:24;6.43;;;5.50;;
49193;SDS011;35029;50.804;12.866;2023-05-10T12:13:50;5.90;;;5.38;;
49193;SDS011;35029;50.804;12.866;2023-05-10T12:16:17;5.13;;;4.63;;
49193;SDS011;35029;50.804;12.866;2023-05-10T12:18:43;5.45;;;4.95;;
49193;SDS011;35029;50.804;12.866;2023-05-10T12:21:10;5.88;;;5.32;;
49193;SDS011;35029;50.804;12.866;2023-05-10T12:23:37;7.03;;;5.10;;
49193;SDS011;35029;50.804;12.866;2023-05-10T12:26:03;5.68;;;5.10;;
49193;SDS011;35029;50.804;12.866;2023-05-10T12:28:30;5.68;;;4.85;;
49193;SDS011;35029;50.804;12.866;2023-05-10T12:30:57;6.05;;;5.47;;
49193;SDS011;35029;50.804;12.866;2023-05-10T12:33:24;5.68;;;5.07;;
49193;SDS011;35029;50.804;12.866;2023-05-10T12:35:50;6.57;;;5.95;;
49193;SDS011;35029;50.804;12.866;2023-05-10T12:40:59;6.80;;;5.57;;
49193;SDS011;35029;50.804;12.866;2023-05-10T12:43:27;6.28;;;5.50;;
49193;SDS011;35029;50.804;12.866;2023-05-10T12:45:53;8.98;;;6.15;;
49193;SDS011;35029;50.804;12.866;2023-05-10T12:48:18;6.80;;;5.65;;
49193;SDS011;35029;50.804;12.866;2023-05-10T12:50:45;8.27;;;5.80;;
49193;SDS011;35029;50.804;12.866;2023-05-10T12:53:10;6.80;;;6.10;;
49193;SDS011;35029;50.804;12.866;2023-05-10T12:55:36;7.72;;;6.45;;
49193;SDS011;35029;50.804;12.866;2023-05-10T12:58:02;5.93;;;5.40;;
49193;SDS011;35029;50.804;12.866;2023-05-10T13:00:27;7.20;;;6.13;;
49193;SDS011;35029;50.804;12.866;2023-05-10T13:02:53;6.65;;;6.05;;
49193;SDS011;35029;50.804;12.866;2023-05-10T13:05:18;6.05;;;5.38;;
49193;SDS011;35029;50.804;12.866;2023-05-10T13:07:44;6.38;;;5.57;;
49193;SDS011;35029;50.804;12.866;2023-05-10T13:10:10;6.18;;;5.57;;
49193;SDS011;35029;50.804;12.866;2023-05-10T13:12:36;8.43;;;5.75;;
49193;SDS011;35029;50.804;12.866;2023-05-10T13:15:02;6.45;;;5.85;;
49193;SDS011;35029;50.804;12.866;2023-05-10T13:17:28;6.40;;;5.80;;
49193;SDS011;35029;50.804;12.866;2023-05-10T13:19:54;8.23;;;5.57;;
49193;SDS011;35029;50.804;12.866;2023-05-10T13:22:19;6.25;;;5.65;;
49193;SDS011;35029;50.804;12.866;2023-05-10T13:24:45;6.10;;;5.43;;
49193;SDS011;35029;50.804;12.866;2023-05-10T13:27:11;8.52;;;6.72;;
49193;SDS011;35029;50.804;12.866;2023-05-10T13:29:36;8.35;;;6.53;;
49193;SDS011;35029;50.804;12.866;2023-05-10T13:32:02;6.63;;;6.03;;
49193;SDS011;35029;50.804;12.866;2023-05-10T13:34:27;7.10;;;6.35;;
49193;SDS011;35029;50.804;12.866;2023-05-10T13:36:53;6.07;;;5.55;;
49193;SDS011;35029;50.804;12.866;2023-05-10T13:39:19;7.20;;;5.60;;
49193;SDS011;35029;50.804;12.866;2023-05-10T13:41:45;6.40;;;5.82;;
49193;SDS011;35029;50.804;12.866;2023-05-10T13:44:12;7.78;;;5.90;;
49193;SDS011;35029;50.804;12.866;2023-05-10T13:46:38;6.28;;;5.30;;
49193;SDS011;35029;50.804;12.866;2023-05-10T13:49:03;8.85;;;5.30;;
49193;SDS011;35029;50.804;12.866;2023-05-10T13:51:29;5.85;;;5.35;;
49193;SDS011;35029;50.804;12.866;2023-05-10T13:53:56;7.03;;;5.47;;
49193;SDS011;35029;50.804;12.866;2023-05-10T13:56:22;6.57;;;5.10;;
49193;SDS011;35029;50.804;12.866;2023-05-10T13:58:48;5.38;;;4.85;;
49193;SDS011;35029;50.804;12.866;2023-05-10T14:01:14;6.35;;;4.97;;
49193;SDS011;35029;50.804;12.866;2023-05-10T14:03:39;5.80;;;5.30;;
49193;SDS011;35029;50.804;12.866;2023-05-10T14:06:05;5.50;;;5.00;;
49193;SDS011;35029;50.804;12.866;2023-05-10T14:08:32;10.05;;;5.38;;
49193;SDS011;35029;50.804;12.866;2023-05-10T14:10:58;4.03;;;3.70;;
49193;SDS011;35029;50.804;12.866;2023-05-10T14:13:23;6.95;;;4.22;;
49193;SDS011;35029;50.804;12.866;2023-05-10T14:15:50;4.32;;;3.72;;
49193;SDS011;35029;50.804;12.866;2023-05-10T14:18:16;4.47;;;4.07;;
49193;SDS011;35029;50.804;12.866;2023-05-10T14:20:41;5.70;;;3.38;;
49193;SDS011;35029;50.804;12.866;2023-05-10T14:23:07;4.00;;;3.55;;
49193;SDS011;35029;50.804;12.866;2023-05-10T14:25:32;5.20;;;3.40;;
49193;SDS011;35029;50.804;12.866;2023-05-10T14:27:58;4.20;;;3.80;;
49193;SDS011;35029;50.804;12.866;2023-05-10T14:30:23;6.15;;;4.07;;
49193;SDS011;35029;50.804;12.866;2023-05-10T14:32:49;4.60;;;4.20;;
49193;SDS011;35029;50.804;12.866;2023-05-10T14:35:15;4.75;;;4.35;;
49193;SDS011;35029;50.804;12.866;2023-05-10T14:37:40;5.68;;;4.25;;
49193;SDS011;35029;50.804;12.866;2023-05-10T14:40:06;4.60;;;4.20;;
49193;SDS011;35029;50.804;12.866;2023-05-10T14:42:32;7.28;;;4.57;;
49193;SDS011;35029;50.804;12.866;2023-05-10T14:44:58;4.50;;;4.10;;
49193;SDS011;35029;50.804;12.866;2023-05-10T14:47:23;4.40;;;4.00;;
49193;SDS011;35029;50.804;12.866;2023-05-10T14:49:49;4.50;;;4.10;;
49193;SDS011;35029;50.804;12.866;2023-05-10T14:52:15;4.13;;;3.72;;
49193;SDS011;35029;50.804;12.866;2023-05-10T14:54:41;4.80;;;4.15;;
49193;SDS011;35029;50.804;12.866;2023-05-10T14:57:06;4.57;;;3.92;;
49193;SDS011;35029;50.804;12.866;2023-05-10T14:59:32;5.45;;;4.25;;
49193;SDS011;35029;50.804;12.866;2023-05-10T15:01:57;4.80;;;4.30;;
49193;SDS011;35029;50.804;12.866;2023-05-10T15:04:23;5.70;;;4.40;;
49193;SDS011;35029;50.804;12.866;2023-05-10T15:06:49;4.03;;;3.60;;
49193;SDS011;35029;50.804;12.866;2023-05-10T15:09:15;4.97;;;4.50;;
49193;SDS011;35029;50.804;12.866;2023-05-10T15:11:41;4.78;;;3.92;;
49193;SDS011;35029;50.804;12.866;2023-05-10T15:14:07;4.20;;;3.83;;
49193;SDS011;35029;50.804;12.866;2023-05-10T15:16:32;3.60;;;3.30;;